createdAt,value
2018-07-28T07:43:36.395Z,66.6
2018-07-28T07:44:36.226Z,65.84
2018-07-28T07:45:36.616Z,65.71
2018-07-28T07:46:36.382Z,65.7
2018-07-28T07:47:36.599Z,65.75
2018-07-28T07:48:36.261Z,65.65
2018-07-28T07:49:36.423Z,65.57
2018-07-28T07:50:36.201Z,65.6
2018-07-28T07:51:36.309Z,65.64
2018-07-28T07:52:36.671Z,65.73
2018-07-28T07:53:36.388Z,65.79
2018-07-28T07:54:36.162Z,65.86
2018-07-28T07:55:36.622Z,65.86
2018-07-28T07:56:36.416Z,65.97
2018-07-28T07:57:36.492Z,65.93
2018-07-28T07:58:36.363Z,66.12
2018-07-28T07:59:36.598Z,66.11
2018-07-28T08:00:36.571Z,66.16
2018-07-28T08:01:36.427Z,66.36
2018-07-28T08:02:36.410Z,66.26
2018-07-28T08:03:36.504Z,66.32
2018-07-28T08:04:36.318Z,66.43
2018-07-28T08:05:36.471Z,66.47
2018-07-28T08:06:36.230Z,66.36
2018-07-28T08:07:36.585Z,66.56
2018-07-28T08:08:36.368Z,66.69
2018-07-28T08:09:36.417Z,66.43
2018-07-28T08:10:36.528Z,66.48
2018-07-28T08:11:36.551Z,66.51
2018-07-28T08:12:36.586Z,66.52
2018-07-28T08:13:36.464Z,66.92
2018-07-28T08:14:36.189Z,66.75
2018-07-28T08:15:36.134Z,66.72
2018-07-28T08:16:36.408Z,66.76
2018-07-28T08:17:36.548Z,66.73
2018-07-28T08:18:36.558Z,66.74
2018-07-28T08:19:36.413Z,66.89
2018-07-28T08:20:36.269Z,66.97
2018-07-28T08:21:36.524Z,66.73
2018-07-28T08:22:36.436Z,66.77
2018-07-28T08:23:36.712Z,66.64
2018-07-28T08:24:36.180Z,66.95
2018-07-28T08:25:36.320Z,66.73
2018-07-28T08:26:36.349Z,66.84
2018-07-28T08:27:36.171Z,66.93
2018-07-28T08:28:36.552Z,66.81
2018-07-28T08:29:36.358Z,66.88
2018-07-28T08:30:36.350Z,67.01
2018-07-28T08:31:36.255Z,66.78
2018-07-28T08:32:36.321Z,66.74
2018-07-28T08:33:36.167Z,66.86
2018-07-28T08:34:36.214Z,66.77
2018-07-28T08:35:36.411Z,66.82
2018-07-28T08:36:36.168Z,66.76
2018-07-28T08:37:36.321Z,66.79
2018-07-28T08:38:36.174Z,66.83
2018-07-28T08:39:36.227Z,66.84
2018-07-28T08:40:36.362Z,66.86
2018-07-28T08:41:36.217Z,67.11
2018-07-28T08:42:36.137Z,66.86
2018-07-28T08:43:36.201Z,66.94
2018-07-28T08:44:36.364Z,67
2018-07-28T08:45:36.142Z,66.9
2018-07-28T08:46:36.341Z,66.87
2018-07-28T08:47:36.117Z,66.82
2018-07-28T08:48:36.376Z,66.82
2018-07-28T08:49:36.547Z,66.91
2018-07-28T08:50:36.319Z,66.79
2018-07-28T08:51:36.161Z,66.89
2018-07-28T08:52:36.542Z,66.95
2018-07-28T08:53:36.309Z,67.11
2018-07-28T08:54:36.469Z,66.89
2018-07-28T08:55:36.612Z,67.65
2018-07-28T08:56:36.384Z,67.02
2018-07-28T08:57:36.404Z,67.11
2018-07-28T08:58:36.267Z,67.12
2018-07-28T08:59:36.423Z,66.98
2018-07-28T09:00:36.171Z,67.17
2018-07-28T09:01:36.466Z,67.11
2018-07-28T09:02:36.428Z,67.32
2018-07-28T09:03:36.668Z,66.94
2018-07-28T09:04:36.820Z,67.27
2018-07-28T09:05:36.681Z,67.32
2018-07-28T09:06:36.333Z,67.17
2018-07-28T09:07:36.723Z,67.34
2018-07-28T09:08:37.437Z,67.26
2018-07-28T09:09:36.147Z,67.22
2018-07-28T09:10:36.668Z,67.32
2018-07-28T09:11:36.351Z,67.37
2018-07-28T09:12:36.372Z,67.31
2018-07-28T09:13:36.546Z,67.46
2018-07-28T09:14:36.395Z,67.47
2018-07-28T09:15:36.202Z,67.27
2018-07-28T09:16:36.169Z,67.33
2018-07-28T09:17:36.240Z,67.12
2018-07-28T09:18:36.180Z,67.29
2018-07-28T09:19:36.467Z,67.28
2018-07-28T09:20:36.491Z,67.47
2018-07-28T09:21:36.287Z,67.56
2018-07-28T09:22:36.443Z,67.31
2018-07-28T09:23:36.539Z,67.38
2018-07-28T09:24:36.567Z,67.5
2018-07-28T09:25:36.408Z,67.87
2018-07-28T09:26:36.328Z,67.2
2018-07-28T09:27:36.254Z,67.34
2018-07-28T09:28:36.572Z,67.23
2018-07-28T09:29:36.335Z,67.39
2018-07-28T09:30:36.545Z,67.36
2018-07-28T09:31:36.267Z,67.58
2018-07-28T09:32:36.313Z,67.52
2018-07-28T09:33:36.714Z,67.38
2018-07-28T09:34:36.579Z,67.48
2018-07-28T09:35:36.373Z,67.62
2018-07-28T09:36:36.216Z,67.4
2018-07-28T09:37:36.405Z,67.28
2018-07-28T09:38:36.283Z,67.37
2018-07-28T09:39:36.345Z,67.37
2018-07-28T09:40:36.728Z,67.21
2018-07-28T09:41:36.418Z,67.27
2018-07-28T09:42:36.253Z,67.36
2018-07-28T09:43:36.316Z,67.3
2018-07-28T09:44:36.251Z,67.35
2018-07-28T09:45:36.321Z,67.52
2018-07-28T09:46:36.319Z,67.63
2018-07-28T09:47:36.111Z,67.38
2018-07-28T09:48:36.388Z,67.38
2018-07-28T09:49:36.446Z,67.32
2018-07-28T09:50:36.285Z,67.38
2018-07-28T09:51:36.343Z,67.34
2018-07-28T09:52:36.502Z,67.47
2018-07-28T09:53:36.258Z,67.64
2018-07-28T09:55:26.430Z,67.45
2018-07-28T09:55:36.498Z,67.53
2018-07-28T09:56:36.233Z,67.63
2018-07-28T09:57:36.182Z,67.54
2018-07-28T09:58:36.332Z,67.47
2018-07-28T09:59:36.280Z,67.58
2018-07-28T10:00:36.231Z,67.52
2018-07-28T10:01:36.347Z,67.54
2018-07-28T10:02:36.180Z,67.53
2018-07-28T10:03:36.398Z,67.37
2018-07-28T10:04:36.485Z,67.58
2018-07-28T10:05:36.539Z,67.51
2018-07-28T10:06:36.168Z,67.74
2018-07-28T10:07:36.406Z,67.67
2018-07-28T10:08:36.364Z,67.64
2018-07-28T10:09:36.259Z,67.55
2018-07-28T10:10:36.509Z,67.57
2018-07-28T10:11:36.278Z,67.64
2018-07-28T10:12:36.254Z,67.65
2018-07-28T10:13:36.322Z,67.91
2018-07-28T10:14:36.203Z,67.68
2018-07-28T10:15:36.091Z,67.76
2018-07-28T10:16:36.188Z,67.83
2018-07-28T10:17:36.263Z,67.54
2018-07-28T10:18:36.282Z,67.75
2018-07-28T10:19:36.614Z,67.78
2018-07-28T10:20:36.412Z,67.79
2018-07-28T10:21:36.155Z,67.79
2018-07-28T10:22:36.423Z,67.79
2018-07-28T10:23:36.314Z,67.84
2018-07-28T10:24:36.230Z,67.73
2018-07-28T10:25:36.293Z,67.66
2018-07-28T10:26:36.172Z,67.63
2018-07-28T10:27:36.361Z,67.8
2018-07-28T10:28:36.345Z,67.93
2018-07-28T10:29:36.249Z,67.89
2018-07-28T10:30:36.141Z,68.07
2018-07-28T10:31:37.228Z,67.87
2018-07-28T10:32:36.283Z,67.68
2018-07-28T10:33:36.098Z,67.79
2018-07-28T10:34:36.353Z,67.7
2018-07-28T10:35:36.284Z,67.79
2018-07-28T10:36:36.368Z,67.76
2018-07-28T10:37:36.617Z,67.64
2018-07-28T10:38:36.310Z,67.65
2018-07-28T10:39:36.373Z,67.92
2018-07-28T10:40:36.329Z,67.77
2018-07-28T10:41:36.211Z,67.76
2018-07-28T10:42:36.107Z,67.71
2018-07-28T10:43:36.342Z,67.68
2018-07-28T10:44:36.382Z,67.88
2018-07-28T10:45:36.244Z,67.75
2018-07-28T10:46:36.648Z,67.68
2018-07-28T10:47:36.308Z,67.99
2018-07-28T10:48:36.215Z,67.74
2018-07-28T10:49:36.459Z,67.78
2018-07-28T10:50:36.137Z,67.9
2018-07-28T10:51:36.204Z,67.73
2018-07-28T10:51:59.072Z,68.16
2018-07-28T10:52:58.765Z,67.93
2018-07-28T10:54:16.585Z,67.99
2018-07-28T10:55:16.955Z,67.8
2018-07-28T10:56:17.067Z,67.75
2018-07-28T10:57:16.716Z,67.62
2018-07-28T10:57:59.829Z,67.63
2018-07-28T10:59:00.222Z,67.74
2018-07-28T11:00:00.085Z,67.46
2018-07-28T11:00:59.878Z,67.57
2018-07-28T11:01:59.780Z,67.54
2018-07-28T11:02:59.968Z,67.5
2018-07-28T11:04:00.079Z,67.48
2018-07-28T11:04:59.742Z,67.47
2018-07-28T11:05:59.966Z,67.43
2018-07-28T11:07:14.735Z,67.48
2018-07-28T11:08:14.730Z,67.53
2018-07-28T11:09:15.137Z,67.45
2018-07-28T11:10:14.715Z,67.46
2018-07-28T11:11:14.703Z,67.59
2018-07-28T11:12:14.728Z,67.47
2018-07-28T11:13:14.755Z,67.53
2018-07-28T11:14:14.787Z,67.69
2018-07-28T11:15:14.656Z,67.63
2018-07-28T11:16:14.840Z,67.37
2018-07-28T11:17:14.888Z,67.34
2018-07-28T11:18:14.779Z,67.32
2018-07-28T11:19:14.757Z,67.21
2018-07-28T11:19:44.851Z,67.13
2018-07-28T11:20:58.668Z,67.55
2018-07-28T11:21:58.622Z,66.97
2018-07-28T11:22:58.857Z,67.05
2018-07-28T11:23:58.678Z,67.02
2018-07-28T11:24:58.893Z,66.96
2018-07-28T11:25:59.045Z,67.14
2018-07-28T11:26:58.781Z,66.94
2018-07-28T11:27:58.735Z,67.11
2018-07-28T11:28:58.796Z,67.1
2018-07-28T11:29:59.060Z,67.17
2018-07-28T11:30:58.885Z,67.13
2018-07-28T11:31:59.158Z,67.2
2018-07-28T11:32:58.805Z,67.28
2018-07-28T11:33:58.886Z,67.37
2018-07-28T11:34:58.856Z,67.43
2018-07-28T11:35:58.850Z,67.49
2018-07-28T11:36:58.685Z,67.35
2018-07-28T11:37:59.127Z,67.53
2018-07-28T11:38:58.882Z,67.7
2018-07-28T11:39:58.912Z,67.63
2018-07-28T11:40:58.894Z,67.61
2018-07-28T11:41:58.762Z,67.45
2018-07-28T11:42:58.729Z,67.58
2018-07-28T11:43:58.986Z,67.77
2018-07-28T11:44:58.711Z,67.7
2018-07-28T11:45:58.914Z,67.55
2018-07-28T11:46:58.923Z,67.41
2018-07-28T11:47:58.700Z,67.29
2018-07-28T11:48:58.939Z,67.24
2018-07-28T11:49:58.725Z,67.45
2018-07-28T11:50:58.772Z,67.42
2018-07-28T11:51:58.675Z,67.26
2018-07-28T11:52:58.792Z,67.4
2018-07-28T11:53:59.144Z,67.53
2018-07-28T11:54:58.752Z,67.37
2018-07-28T11:55:58.852Z,67.46
2018-07-28T11:56:58.732Z,67.44
2018-07-28T11:57:58.809Z,67.51
2018-07-28T11:58:58.994Z,67.44
2018-07-28T11:59:58.723Z,67.46
2018-07-28T12:00:58.873Z,67.39
2018-07-28T12:01:58.954Z,67.42
2018-07-28T12:02:58.841Z,67.44
2018-07-28T12:03:58.666Z,67.4
2018-07-28T12:04:58.941Z,67.34
2018-07-28T12:05:58.760Z,67.3
2018-07-28T12:06:58.904Z,67.35
2018-07-28T12:07:58.707Z,67.46
2018-07-28T12:08:58.735Z,67.31
2018-07-28T12:09:58.784Z,67.41
2018-07-28T12:10:59.070Z,67.24
2018-07-28T12:11:58.779Z,67.47
2018-07-28T12:12:58.915Z,67.43
2018-07-28T12:13:59.162Z,67.18
2018-07-28T12:14:58.805Z,67.36
2018-07-28T12:15:58.654Z,67.41
2018-07-28T12:16:58.686Z,67.32
2018-07-28T12:17:58.953Z,67.42
2018-07-28T12:18:58.786Z,67.33
2018-07-28T12:19:58.809Z,67.27
2018-07-28T12:20:58.885Z,67.21
2018-07-28T12:21:58.637Z,67.28
2018-07-28T12:22:58.883Z,67.19
2018-07-28T12:23:59.128Z,67.31
2018-07-28T12:24:58.891Z,67.35
2018-07-28T12:25:58.892Z,67.32
2018-07-28T12:26:58.927Z,67.18
2018-07-28T12:27:58.749Z,67.27
2018-07-28T12:28:58.958Z,67.29
2018-07-28T12:29:58.802Z,67.29
2018-07-28T12:30:58.638Z,67.19
2018-07-28T12:31:58.718Z,67.15
2018-07-28T12:32:58.836Z,67.34
2018-07-28T12:33:58.741Z,67.21
2018-07-28T12:34:59.164Z,67.35
2018-07-28T12:35:59.052Z,67.34
2018-07-28T12:36:58.908Z,67.32
2018-07-28T12:37:58.725Z,67.16
2018-07-28T12:38:58.899Z,67.14
2018-07-28T12:39:58.636Z,67.3
2018-07-28T12:40:58.974Z,67.24
2018-07-28T12:41:58.906Z,67.24
2018-07-28T12:42:58.880Z,67.25
2018-07-28T12:43:58.831Z,67.26
2018-07-28T12:44:58.916Z,67.17
2018-07-28T12:45:58.900Z,67.28
2018-07-28T12:46:58.957Z,67.22
2018-07-28T12:47:58.712Z,67.17
2018-07-28T12:48:58.658Z,67.2
2018-07-28T12:49:58.841Z,67.32
2018-07-28T12:50:58.731Z,67.22
2018-07-28T12:51:58.893Z,67.18
2018-07-28T12:52:58.801Z,67.18
2018-07-28T12:53:58.745Z,67.1
2018-07-28T12:54:58.800Z,67.15
2018-07-28T12:55:58.867Z,67.25
2018-07-28T12:56:58.754Z,67.21
2018-07-28T12:57:58.651Z,67.26
2018-07-28T12:58:58.810Z,67.2
2018-07-28T12:59:58.803Z,67.27
2018-07-28T13:00:58.777Z,67.36
2018-07-28T13:01:58.918Z,67.24
2018-07-28T13:02:58.850Z,67.25
2018-07-28T13:03:59.079Z,67.17
2018-07-28T13:04:58.768Z,67.34
2018-07-28T13:05:58.703Z,67.24
2018-07-28T13:06:58.643Z,67.21
2018-07-28T13:07:58.723Z,67.23
2018-07-28T13:08:58.972Z,67.26
2018-07-28T13:09:58.937Z,67.21
2018-07-28T13:10:58.648Z,67.24
2018-07-28T13:11:58.826Z,67.26
2018-07-28T13:12:59.128Z,67.13
2018-07-28T13:13:58.881Z,67.23
2018-07-28T13:14:59.157Z,67.18
2018-07-28T13:15:58.628Z,67.18
2018-07-28T13:16:58.793Z,67.28
2018-07-28T13:17:58.988Z,67.2
2018-07-28T13:18:58.813Z,67.22
2018-07-28T13:19:58.728Z,67.23
2018-07-28T13:20:58.865Z,67.28
2018-07-28T13:21:58.743Z,67.15
2018-07-28T13:22:58.759Z,67.23
2018-07-28T13:23:58.756Z,67.23
2018-07-28T13:24:58.658Z,67.23
2018-07-28T13:25:58.772Z,67.23
2018-07-28T13:26:58.769Z,67.08
2018-07-28T13:27:58.869Z,67.14
2018-07-28T13:28:58.750Z,67.17
2018-07-28T13:29:59.216Z,67.23
2018-07-28T13:30:58.960Z,67.22
2018-07-28T13:31:58.855Z,67.33
2018-07-28T13:32:58.849Z,67.28
2018-07-28T13:33:58.630Z,67.22
2018-07-28T13:34:58.782Z,67.21
2018-07-28T13:35:58.681Z,67.33
2018-07-28T13:36:58.727Z,67.3
2018-07-28T13:37:58.862Z,67.36
2018-07-28T13:38:58.688Z,67.24
2018-07-28T13:39:58.823Z,67.1
2018-07-28T13:40:58.874Z,67.31
2018-07-28T13:41:58.782Z,67.16
2018-07-28T13:42:58.656Z,67.17
2018-07-28T13:43:58.763Z,67.2
2018-07-28T13:44:58.652Z,67.24
2018-07-28T13:45:58.729Z,67.25
2018-07-28T13:46:58.723Z,67.04
2018-07-28T13:47:59.108Z,67.11
2018-07-28T13:48:58.924Z,67.19
2018-07-28T13:49:58.621Z,67.18
2018-07-28T13:50:58.838Z,67.14
2018-07-28T13:51:58.677Z,67.05
2018-07-28T13:52:58.854Z,67.13
2018-07-28T13:53:59.023Z,67.08
2018-07-28T13:54:58.658Z,67.1
2018-07-28T13:55:58.855Z,67.24
2018-07-28T13:56:58.841Z,67.09
2018-07-28T13:57:58.719Z,67.05
2018-07-28T13:58:58.805Z,67.05
2018-07-28T13:59:59.117Z,67.19
2018-07-28T14:00:58.799Z,67.13
2018-07-28T14:01:58.892Z,67.06
2018-07-28T14:02:58.761Z,67.07
2018-07-28T14:03:58.886Z,67.13
2018-07-28T14:04:58.669Z,67.53
2018-07-28T14:05:59.097Z,67.79
2018-07-28T14:06:58.946Z,67.45
2018-07-28T14:07:58.975Z,67.44
2018-07-28T14:08:58.786Z,67.51
2018-07-28T14:09:58.841Z,67.54
2018-07-28T14:10:58.840Z,67.28
2018-07-28T14:11:58.914Z,67.43
2018-07-28T14:12:58.979Z,67.4
2018-07-28T14:13:58.791Z,67.43
2018-07-28T14:14:58.945Z,67.35
2018-07-28T14:15:58.851Z,67.42
2018-07-28T14:16:58.787Z,67.43
2018-07-28T14:17:58.907Z,67.38
2018-07-28T14:18:58.724Z,67.35
2018-07-28T14:19:58.881Z,67.35
2018-07-28T14:20:58.937Z,67.41
2018-07-28T14:21:58.887Z,67.33
2018-07-28T14:22:58.878Z,67.25
2018-07-28T14:23:58.703Z,67.2
2018-07-28T14:24:58.939Z,67.33
2018-07-28T14:25:58.725Z,67.37
2018-07-28T14:26:58.674Z,67.2
2018-07-28T14:27:58.758Z,67.26
2018-07-28T14:28:58.896Z,67.4
2018-07-28T14:29:58.914Z,67.41
2018-07-28T14:30:58.807Z,67.38
2018-07-28T14:31:58.741Z,67.44
2018-07-28T14:32:58.811Z,67.39
2018-07-28T14:33:58.892Z,67.27
2018-07-28T14:34:58.703Z,67.34
2018-07-28T14:35:58.811Z,67.27
2018-07-28T14:36:58.629Z,67.29
2018-07-28T14:37:58.736Z,67.12
2018-07-28T14:38:58.763Z,67.3
2018-07-28T14:39:58.785Z,67.3
2018-07-28T14:40:58.750Z,67.09
2018-07-28T14:41:58.593Z,67.4
2018-07-28T14:42:58.717Z,67.22
2018-07-28T14:43:58.698Z,67.35
2018-07-28T14:44:58.913Z,67.32
2018-07-28T14:45:58.708Z,67.25
2018-07-28T14:46:58.708Z,67.25
2018-07-28T14:47:58.728Z,67.27
2018-07-28T14:48:58.748Z,67.29
2018-07-28T14:49:58.771Z,67.31
2018-07-28T14:50:58.619Z,67.22
2018-07-28T14:51:58.799Z,67.32
2018-07-28T14:52:58.895Z,67.31
2018-07-28T14:53:59.983Z,67.36
2018-07-28T14:54:58.701Z,67.33
2018-07-28T14:55:58.603Z,67.4
2018-07-28T14:56:58.839Z,67.35
2018-07-28T14:57:58.781Z,67.18
2018-07-28T14:58:58.761Z,67.33
2018-07-28T14:59:58.662Z,67.36
2018-07-28T15:00:58.654Z,67.36
2018-07-28T15:01:59.000Z,67.5
2018-07-28T15:02:59.001Z,67.45
2018-07-28T15:03:58.821Z,67.32
2018-07-28T15:04:58.834Z,67.21
2018-07-28T15:05:58.860Z,67.36
2018-07-28T15:06:58.938Z,67.21
2018-07-28T15:07:58.662Z,67.13
2018-07-28T15:08:58.765Z,67.33
2018-07-28T15:09:59.036Z,67.24
2018-07-28T15:10:58.763Z,67.09
2018-07-28T15:11:58.908Z,67.29
2018-07-28T15:12:58.758Z,67.27
2018-07-28T15:13:58.856Z,67.21
2018-07-28T15:14:58.867Z,67.14
2018-07-28T15:15:58.638Z,67.15
2018-07-28T15:16:58.914Z,67.2
2018-07-28T15:17:58.584Z,67.14
2018-07-28T15:18:58.694Z,67.13
2018-07-28T15:19:58.679Z,67.17
2018-07-28T15:20:58.858Z,67.49
2018-07-28T15:21:58.871Z,67.24
2018-07-28T15:22:58.697Z,67.41
2018-07-28T15:23:58.782Z,67.36
2018-07-28T15:24:58.821Z,67.35
2018-07-28T15:25:58.690Z,67.27
2018-07-28T15:26:58.568Z,67.32
2018-07-28T15:27:58.771Z,67.36
2018-07-28T15:28:59.829Z,67.32
2018-07-28T15:29:59.173Z,67.21
2018-07-28T15:30:58.894Z,67.4
2018-07-28T15:31:58.736Z,67.45
2018-07-28T15:32:58.869Z,67.52
2018-07-28T15:33:58.745Z,67.48
2018-07-28T15:34:58.832Z,67.78
2018-07-28T15:35:58.921Z,67.5
2018-07-28T15:36:59.005Z,67.35
2018-07-28T15:37:59.067Z,67.46
2018-07-28T15:38:59.104Z,67.41
2018-07-28T15:39:59.137Z,67.45
2018-07-28T15:40:58.667Z,67.46
2018-07-28T15:41:58.731Z,67.48
2018-07-28T15:42:58.743Z,67.46
2018-07-28T15:43:58.805Z,67.36
2018-07-28T15:44:58.582Z,67.47
2018-07-28T15:45:58.676Z,67.53
2018-07-28T15:46:58.921Z,67.46
2018-07-28T15:47:58.714Z,67.53
2018-07-28T15:48:58.978Z,67.54
2018-07-28T15:49:59.148Z,67.48
2018-07-28T15:50:58.652Z,67.64
2018-07-28T15:51:58.590Z,67.51
2018-07-28T15:52:58.682Z,67.67
2018-07-28T15:53:58.650Z,67.66
2018-07-28T15:54:58.634Z,67.75
2018-07-28T15:55:58.783Z,67.74
2018-07-28T15:56:58.678Z,67.69
2018-07-28T15:57:58.727Z,67.85
2018-07-28T15:58:58.603Z,67.69
2018-07-28T15:59:58.656Z,67.77
2018-07-28T16:00:58.615Z,67.81
2018-07-28T16:01:58.822Z,67.81
2018-07-28T16:02:58.822Z,67.78
2018-07-28T16:03:58.983Z,67.71
2018-07-28T16:04:58.604Z,67.73
2018-07-28T16:05:58.910Z,67.66
2018-07-28T16:06:58.608Z,67.75
2018-07-28T16:07:58.710Z,67.73
2018-07-28T16:08:58.918Z,67.73
2018-07-28T16:09:58.548Z,67.77
2018-07-28T16:10:58.806Z,67.87
2018-07-28T16:11:58.789Z,67.67
2018-07-28T16:12:58.819Z,67.52
2018-07-28T16:13:58.961Z,67.62
2018-07-28T16:14:58.758Z,67.68
2018-07-28T16:15:58.728Z,67.57
2018-07-28T16:16:58.910Z,67.7
2018-07-28T16:17:58.766Z,67.75
2018-07-28T16:18:58.563Z,67.97
2018-07-28T16:19:18.488Z,68.08
2018-07-28T16:20:18.720Z,67.47
2018-07-28T16:21:30.189Z,67.28
2018-07-28T16:22:30.286Z,66.99
2018-07-28T16:23:30.207Z,66.83
2018-07-28T16:24:30.059Z,66.85
2018-07-28T16:25:30.212Z,66.97
2018-07-28T16:26:30.291Z,66.62
2018-07-28T16:27:33.825Z,66.73
2018-07-28T16:28:30.384Z,66.52
2018-07-28T16:28:58.483Z,67.48
2018-07-28T16:29:58.529Z,67.04
2018-07-28T16:30:58.614Z,67.27
2018-07-28T16:31:58.742Z,67.25
2018-07-28T16:32:58.594Z,67.55
2018-07-28T16:33:58.814Z,67.06
2018-07-28T16:34:58.784Z,67.17
2018-07-28T16:35:58.561Z,67.12
2018-07-28T16:36:58.573Z,67.22
2018-07-28T16:37:58.664Z,67.18
2018-07-28T16:38:58.758Z,67.43
2018-07-28T16:39:58.671Z,67.25
2018-07-28T16:40:58.914Z,67.27
2018-07-28T16:41:58.744Z,67.28
2018-07-28T16:42:58.843Z,67.23
2018-07-28T16:43:58.695Z,67.33
2018-07-28T16:44:58.726Z,67.41
2018-07-28T16:45:58.542Z,67.28
2018-07-28T16:46:58.556Z,67.23
2018-07-28T16:47:58.685Z,67.33
2018-07-28T16:48:58.647Z,67.35
2018-07-28T16:49:58.764Z,67.31
2018-07-28T16:50:58.800Z,67.24
2018-07-28T16:51:58.709Z,67.24
2018-07-28T16:52:58.577Z,67.31
2018-07-28T16:53:58.559Z,67.34
2018-07-28T16:54:58.646Z,67.4
2018-07-28T16:55:58.558Z,67.33
2018-07-28T16:56:58.638Z,67.36
2018-07-28T16:57:58.710Z,67.35
2018-07-28T16:58:58.844Z,67.32
2018-07-28T16:59:58.836Z,67.39
2018-07-28T17:00:58.715Z,67.4
2018-07-28T17:01:58.766Z,67.31
2018-07-28T17:02:58.513Z,67.38
2018-07-28T17:03:58.536Z,67.25
2018-07-28T17:04:58.831Z,67.35
2018-07-28T17:05:58.803Z,67.3
2018-07-28T17:06:58.695Z,67.32
2018-07-28T17:07:58.637Z,67.43
2018-07-28T17:08:58.591Z,67.23
2018-07-28T17:09:58.539Z,67.26
2018-07-28T17:10:58.542Z,67.29
2018-07-28T17:11:58.509Z,67.3
2018-07-28T17:12:58.660Z,67.16
2018-07-28T17:13:58.748Z,67.31
2018-07-28T17:14:58.608Z,67.25
2018-07-28T17:15:58.815Z,67.16
2018-07-28T17:16:58.789Z,67.21
2018-07-28T17:17:58.670Z,67.33
2018-07-28T17:18:58.552Z,67.29
2018-07-28T17:19:58.754Z,67.32
2018-07-28T17:20:58.656Z,67.32
2018-07-28T17:21:58.769Z,67.16
2018-07-28T17:22:58.607Z,67.31
2018-07-28T17:23:58.720Z,67.18
2018-07-28T17:24:58.770Z,67.22
2018-07-28T17:25:58.799Z,67.2
2018-07-28T17:26:58.689Z,67.21
2018-07-28T17:27:58.738Z,67.35
2018-07-28T17:28:58.726Z,67.35
2018-07-28T17:29:58.570Z,67.3
2018-07-28T17:30:59.160Z,67.21
2018-07-28T17:31:58.834Z,67.3
2018-07-28T17:32:58.593Z,67.22
2018-07-28T17:33:58.688Z,67.3
2018-07-28T17:34:58.775Z,67.28
2018-07-28T17:35:58.584Z,67.35
2018-07-28T17:36:58.737Z,67.28
2018-07-28T17:37:58.884Z,67.13
2018-07-28T17:38:58.639Z,67.2
2018-07-28T17:39:58.755Z,67.24
2018-07-28T17:40:58.834Z,67.23
2018-07-28T17:41:58.731Z,67.21
2018-07-28T17:42:58.720Z,67.25
2018-07-28T17:43:58.850Z,67.21
2018-07-28T17:44:58.735Z,67.24
2018-07-28T17:45:58.611Z,67.18
2018-07-28T17:46:58.715Z,67.28
2018-07-28T17:47:58.623Z,67.13
2018-07-28T17:48:58.831Z,67.22
2018-07-28T17:49:58.848Z,67.28
2018-07-28T17:50:58.722Z,67.21
2018-07-28T17:51:58.756Z,67.21
2018-07-28T17:52:58.877Z,67.14
2018-07-28T17:53:58.914Z,67.34
2018-07-28T17:54:58.637Z,67.17
2018-07-28T17:55:58.827Z,67.26
2018-07-28T17:56:58.718Z,67.18
2018-07-28T17:57:58.730Z,67.34
2018-07-28T17:58:58.631Z,67.3
2018-07-28T17:59:59.181Z,67.11
2018-07-28T18:00:58.727Z,67.11
2018-07-28T18:01:58.760Z,67.2
2018-07-28T18:02:58.750Z,67.29
2018-07-28T18:03:58.730Z,67.21
2018-07-28T18:04:58.594Z,67.3
2018-07-28T18:05:58.596Z,67.33
2018-07-28T18:06:58.853Z,67.09
2018-07-28T18:07:58.663Z,67.23
2018-07-28T18:08:58.658Z,67.2
2018-07-28T18:09:58.709Z,67.06
2018-07-28T18:10:58.626Z,67.11
2018-07-28T18:11:58.603Z,67.26
2018-07-28T18:12:58.655Z,67.14
2018-07-28T18:13:58.889Z,67.35
2018-07-28T18:14:58.730Z,67.27
2018-07-28T18:15:58.771Z,67.2
2018-07-28T18:16:58.697Z,67.16
2018-07-28T18:17:58.961Z,67.26
2018-07-28T18:18:58.590Z,67.08
2018-07-28T18:19:58.805Z,67.17
2018-07-28T18:20:58.626Z,67.25
2018-07-28T18:21:58.691Z,67.24
2018-07-28T18:22:58.749Z,67.15
2018-07-28T18:23:58.796Z,67.17
2018-07-28T18:24:58.630Z,67.31
2018-07-28T18:25:58.813Z,67.2
2018-07-28T18:26:58.658Z,67.3
2018-07-28T18:27:58.699Z,67.24
2018-07-28T18:28:58.830Z,67.26
2018-07-28T18:29:58.602Z,67.15
2018-07-28T18:30:58.610Z,67.27
2018-07-28T18:31:58.737Z,67.32
2018-07-28T18:32:58.572Z,67.28
2018-07-28T18:33:58.714Z,67.29
2018-07-28T18:34:58.773Z,67.26
2018-07-28T18:35:58.578Z,67.13
2018-07-28T18:36:58.669Z,67.43
2018-07-28T18:37:58.725Z,67.24
2018-07-28T18:38:58.733Z,67.16
2018-07-28T18:39:58.547Z,67.26
2018-07-28T18:40:58.679Z,67.16
2018-07-28T18:41:58.585Z,67.29
2018-07-28T18:42:58.902Z,67.13
2018-07-28T18:43:58.753Z,67.15
2018-07-28T18:44:58.880Z,67.18
2018-07-28T18:45:58.798Z,67.26
2018-07-28T18:46:58.675Z,67.33
2018-07-28T18:47:58.879Z,67.25
2018-07-28T18:48:59.183Z,67.29
2018-07-28T18:49:58.843Z,67.2
2018-07-28T18:50:59.778Z,67.21
2018-07-28T18:51:58.788Z,67.16
2018-07-28T18:52:58.793Z,67.36
2018-07-28T18:53:58.616Z,67.19
2018-07-28T18:54:58.844Z,67.26
2018-07-28T18:55:58.749Z,67.27
2018-07-28T18:56:58.521Z,67.17
2018-07-28T18:57:58.693Z,67.16
2018-07-28T18:58:58.830Z,67.33
2018-07-28T18:59:58.634Z,67.13
2018-07-28T19:00:59.348Z,67.18
2018-07-28T19:01:58.686Z,67.26
2018-07-28T19:02:58.669Z,67.31
2018-07-28T19:03:59.002Z,67.07
2018-07-28T19:04:58.888Z,67.14
2018-07-28T19:05:58.583Z,67.14
2018-07-28T19:06:58.651Z,67.28
2018-07-28T19:07:58.610Z,67.13
2018-07-28T19:08:58.653Z,67.25
2018-07-28T19:09:58.542Z,67.18
2018-07-28T19:10:58.757Z,67.17
2018-07-28T19:11:58.906Z,67.09
2018-07-28T19:12:58.650Z,67.17
2018-07-28T19:13:58.604Z,67.11
2018-07-28T19:14:58.773Z,67.13
2018-07-28T19:15:58.749Z,67.61
2018-07-28T19:16:58.694Z,67.47
2018-07-28T19:17:58.617Z,67.38
2018-07-28T19:18:58.631Z,67.51
2018-07-28T19:19:58.878Z,67.68
2018-07-28T19:20:59.796Z,67.65
2018-07-28T19:21:58.599Z,67.72
2018-07-28T19:22:58.733Z,67.76
2018-07-28T19:23:58.712Z,67.64
2018-07-28T19:24:58.620Z,67.66
2018-07-28T19:25:58.610Z,67.58
2018-07-28T19:26:58.674Z,67.71
2018-07-28T19:27:58.816Z,67.7
2018-07-28T19:28:58.787Z,67.77
2018-07-28T19:29:58.592Z,67.83
2018-07-28T19:30:58.833Z,67.78
2018-07-28T19:31:58.724Z,67.79
2018-07-28T19:32:58.764Z,67.89
2018-07-28T19:33:58.645Z,67.84
2018-07-28T19:34:58.671Z,67.76
2018-07-28T19:35:58.511Z,67.8
2018-07-28T19:36:58.728Z,67.89
2018-07-28T19:37:58.661Z,67.83
2018-07-28T19:38:58.704Z,67.77
2018-07-28T19:39:58.652Z,67.85
2018-07-28T19:40:58.734Z,67.9
2018-07-28T19:41:58.596Z,67.83
2018-07-28T19:42:58.626Z,67.91
2018-07-28T19:43:58.627Z,67.95
2018-07-28T19:44:58.515Z,67.98
2018-07-28T19:45:58.555Z,67.74
2018-07-28T19:46:58.642Z,67.85
2018-07-28T19:47:58.692Z,67.9
2018-07-28T19:48:58.766Z,67.87
2018-07-28T19:49:58.776Z,67.87
2018-07-28T19:50:58.735Z,67.94
2018-07-28T19:51:58.564Z,67.89
2018-07-28T19:52:58.839Z,67.85
2018-07-28T19:53:58.570Z,67.87
2018-07-28T19:54:58.616Z,67.96
2018-07-28T19:55:58.552Z,67.89
2018-07-28T19:56:58.561Z,67.83
2018-07-28T19:57:58.714Z,67.85
2018-07-28T19:58:58.629Z,67.74
2018-07-28T19:59:58.763Z,67.96
2018-07-28T20:00:58.857Z,67.86
2018-07-28T20:01:58.611Z,67.89
2018-07-28T20:02:58.545Z,67.84
2018-07-28T20:03:58.668Z,67.85
2018-07-28T20:04:58.761Z,67.82
2018-07-28T20:05:58.683Z,67.93
2018-07-28T20:06:58.526Z,67.88
2018-07-28T20:07:58.855Z,67.93
2018-07-28T20:08:58.957Z,67.85
2018-07-28T20:09:58.673Z,68.15
2018-07-28T20:10:58.762Z,67.8
2018-07-28T20:11:58.499Z,67.65
2018-07-28T20:12:58.676Z,67.72
2018-07-28T20:13:58.811Z,67.62
2018-07-28T20:14:58.651Z,67.55
2018-07-28T20:15:58.749Z,67.72
2018-07-28T20:16:59.012Z,67.6
2018-07-28T20:17:58.713Z,67.54
2018-07-28T20:18:58.776Z,67.57
2018-07-28T20:19:58.861Z,67.65
2018-07-28T20:20:58.452Z,67.65
2018-07-28T20:21:58.763Z,67.68
2018-07-28T20:22:58.706Z,67.67
2018-07-28T20:23:58.629Z,67.59
2018-07-28T20:24:58.691Z,67.69
2018-07-28T20:25:58.607Z,67.59
2018-07-28T20:26:58.830Z,67.57
2018-07-28T20:27:58.546Z,67.57
2018-07-28T20:28:58.772Z,67.64
2018-07-28T20:29:59.120Z,67.57
2018-07-28T20:30:58.695Z,67.62
2018-07-28T20:31:59.000Z,67.69
2018-07-28T20:32:58.731Z,67.6
2018-07-28T20:33:58.987Z,67.57
2018-07-28T20:34:59.225Z,67.56
2018-07-28T20:35:58.679Z,67.5